createdAt,value
2023-03-16T00:00:33.468Z,2.10
2023-03-16T00:03:20.360Z,2.20
2023-03-16T00:05:52.783Z,2.10
2023-03-16T00:08:22.662Z,2.40
2023-03-16T00:10:54.481Z,2.00
2023-03-16T00:13:25.579Z,2.20
2023-03-16T00:15:56.314Z,2.60
2023-03-16T00:18:30.327Z,3.30
2023-03-16T00:21:05.637Z,2.80
2023-03-16T00:23:39.373Z,3.90
2023-03-16T00:26:10.829Z,2.30
2023-03-16T00:28:40.647Z,3.20
2023-03-16T00:31:15.692Z,2.70
2023-03-16T00:33:44.523Z,2.00
2023-03-16T00:36:13.815Z,2.00
2023-03-16T00:38:47.386Z,2.10
2023-03-16T00:41:17.185Z,2.00
2023-03-16T00:43:47.277Z,1.50
2023-03-16T00:46:18.138Z,2.10
2023-03-16T00:48:49.022Z,2.10
2023-03-16T00:51:19.734Z,1.50
2023-03-16T00:53:50.135Z,1.40
2023-03-16T00:56:19.976Z,2.00
2023-03-16T00:58:49.005Z,2.00
2023-03-16T01:01:21.037Z,1.60
2023-03-16T01:03:50.101Z,1.30
2023-03-16T01:06:21.088Z,2.20
2023-03-16T01:08:50.463Z,1.60
2023-03-16T01:11:22.580Z,1.00
2023-03-16T01:13:54.828Z,1.80
2023-03-16T01:16:24.235Z,1.50
2023-03-16T01:18:54.127Z,1.10
2023-03-16T01:21:23.502Z,4.00
2023-03-16T01:23:54.282Z,3.40
2023-03-16T01:26:25.720Z,2.40
2023-03-16T01:28:55.606Z,2.10
2023-03-16T01:31:24.982Z,3.20
2023-03-16T01:33:54.528Z,8.00
2023-03-16T01:36:24.380Z,3.80
2023-03-16T01:38:54.492Z,1.20
2023-03-16T01:41:23.863Z,1.90
2023-03-16T01:43:54.290Z,1.80
2023-03-16T01:46:28.957Z,1.40
2023-03-16T01:49:26.658Z,1.20
2023-03-16T01:52:04.869Z,1.80
2023-03-16T01:54:43.695Z,1.20
2023-03-16T01:57:26.228Z,1.40
2023-03-16T02:00:11.682Z,1.30
2023-03-16T02:02:46.969Z,1.20
2023-03-16T02:05:39.418Z,1.10
2023-03-16T02:08:12.867Z,1.80
2023-03-16T02:10:42.308Z,2.70
2023-03-16T02:13:11.809Z,1.60
2023-03-16T02:15:41.213Z,1.40
2023-03-16T02:18:11.426Z,2.40
2023-03-16T02:21:11.192Z,1.40
2023-03-16T02:23:40.049Z,4.40
2023-03-16T02:26:23.450Z,14.20
2023-03-16T02:29:30.234Z,6.80
2023-03-16T02:32:00.539Z,3.90
2023-03-16T02:34:30.068Z,2.30
2023-03-16T02:37:00.252Z,1.40
2023-03-16T02:39:29.065Z,1.70
2023-03-16T02:41:57.936Z,0.90
2023-03-16T02:44:34.219Z,1.40
2023-03-16T02:47:28.028Z,1.90
2023-03-16T02:49:57.270Z,1.80
2023-03-16T02:52:26.101Z,1.10
2023-03-16T02:54:55.042Z,0.80
2023-03-16T02:57:24.261Z,1.30
2023-03-16T02:59:53.086Z,1.60
2023-03-16T03:02:22.339Z,0.90
2023-03-16T03:04:54.807Z,3.00
2023-03-16T03:07:32.303Z,2.60
2023-03-16T03:10:06.628Z,2.20
2023-03-16T03:12:38.197Z,1.10
2023-03-16T03:15:08.764Z,1.70
2023-03-16T03:17:37.869Z,2.90
2023-03-16T03:20:14.270Z,1.10
2023-03-16T03:22:50.287Z,2.70
2023-03-16T03:25:20.477Z,4.00
2023-03-16T03:27:51.487Z,4.90
2023-03-16T03:30:24.887Z,3.70
2023-03-16T03:32:53.687Z,2.50
2023-03-16T03:35:23.208Z,2.60
2023-03-16T03:37:52.266Z,2.30
2023-03-16T03:40:22.368Z,1.80
2023-03-16T03:42:52.126Z,2.30
2023-03-16T03:45:21.331Z,1.20
2023-03-16T03:47:50.268Z,1.40
2023-03-16T03:50:19.572Z,2.40
2023-03-16T03:52:49.077Z,2.10
2023-03-16T03:55:18.285Z,1.90
2023-03-16T03:57:47.290Z,2.00
2023-03-16T04:00:21.214Z,1.10
2023-03-16T04:02:50.292Z,1.30
2023-03-16T04:05:19.551Z,2.50
2023-03-16T04:07:49.993Z,2.40
2023-03-16T04:10:19.063Z,2.10
2023-03-16T04:12:48.447Z,1.90
2023-03-16T04:15:17.675Z,1.30
2023-03-16T04:17:46.605Z,1.60
2023-03-16T04:20:19.535Z,1.10
2023-03-16T04:22:48.745Z,1.40
2023-03-16T04:25:18.963Z,1.10
2023-03-16T04:27:47.878Z,1.50
2023-03-16T04:30:17.291Z,1.10
2023-03-16T04:32:46.839Z,1.30
2023-03-16T04:35:16.040Z,1.30
2023-03-16T04:37:44.917Z,1.90
2023-03-16T04:40:17.797Z,3.30
2023-03-16T04:42:48.776Z,1.40
2023-03-16T04:45:20.712Z,1.50
2023-03-16T04:47:50.588Z,1.60
2023-03-16T04:50:19.981Z,2.60
2023-03-16T04:52:49.427Z,1.60
2023-03-16T04:55:18.871Z,2.00
2023-03-16T04:57:47.974Z,1.80
2023-03-16T05:00:20.152Z,2.30
2023-03-16T05:02:50.527Z,1.60
2023-03-16T05:05:19.832Z,1.70
2023-03-16T05:07:49.551Z,1.20
2023-03-16T05:10:24.772Z,1.50
2023-03-16T05:12:54.124Z,1.60
2023-03-16T05:15:24.021Z,2.60
2023-03-16T05:17:53.034Z,3.10
2023-03-16T05:20:23.054Z,1.90
2023-03-16T05:22:53.031Z,1.40
2023-03-16T05:25:22.082Z,2.30
2023-03-16T05:27:54.415Z,3.30
2023-03-16T05:30:23.609Z,2.70
2023-03-16T05:32:53.018Z,2.10
2023-03-16T05:35:24.195Z,2.60
2023-03-16T05:37:53.431Z,1.70
2023-03-16T05:40:23.420Z,1.80
2023-03-16T05:42:56.501Z,1.70
2023-03-16T05:45:25.895Z,3.80
2023-03-16T05:47:55.024Z,3.40
2023-03-16T05:50:24.977Z,2.20
2023-03-16T05:52:54.640Z,2.50
2023-03-16T05:55:24.003Z,3.80
2023-03-16T05:57:53.062Z,1.50
2023-03-16T06:00:23.546Z,2.30
2023-03-16T06:02:53.231Z,2.50
2023-03-16T06:05:23.315Z,1.90
2023-03-16T06:07:53.080Z,2.30
2023-03-16T06:10:22.380Z,1.60
2023-03-16T06:12:52.214Z,3.60
2023-03-16T06:15:25.454Z,5.90
2023-03-16T06:17:54.760Z,4.40
2023-03-16T06:20:23.971Z,2.80
2023-03-16T06:22:53.685Z,3.00
2023-03-16T06:25:24.838Z,3.30
2023-03-16T06:27:53.910Z,2.60
2023-03-16T06:30:23.081Z,2.80
2023-03-16T06:32:52.711Z,4.00
2023-03-16T06:35:21.812Z,2.60
2023-03-16T06:37:50.764Z,1.50
2023-03-16T06:40:19.844Z,2.90
2023-03-16T06:42:49.649Z,1.80
2023-03-16T06:45:22.737Z,2.30
2023-03-16T06:47:52.049Z,2.60
2023-03-16T06:50:21.637Z,7.40
2023-03-16T06:52:51.185Z,6.00
2023-03-16T06:55:20.901Z,4.00
2023-03-16T06:57:49.974Z,3.50
2023-03-16T07:00:19.531Z,3.50
2023-03-16T07:02:48.723Z,1.90
2023-03-16T07:05:18.433Z,2.30
2023-03-16T07:07:47.587Z,2.40
2023-03-16T07:10:18.873Z,2.60
2023-03-16T07:12:47.793Z,3.60
2023-03-16T07:15:17.316Z,2.50
2023-03-16T07:17:46.730Z,2.10
2023-03-16T07:20:16.214Z,2.20
2023-03-16T07:22:45.516Z,2.30
2023-03-16T07:25:15.592Z,2.00
2023-03-16T07:27:47.225Z,2.70
2023-03-16T07:30:16.761Z,2.20
2023-03-16T07:32:45.861Z,2.70
2023-03-16T07:35:17.809Z,3.40
2023-03-16T07:37:47.345Z,2.20
2023-03-16T07:40:16.789Z,2.90
2023-03-16T07:42:45.917Z,2.50
2023-03-16T07:45:15.823Z,3.10
2023-03-16T07:47:45.101Z,2.90
2023-03-16T07:50:16.758Z,2.60
2023-03-16T07:52:46.881Z,3.70
2023-03-16T07:55:16.640Z,4.10
2023-03-16T07:57:48.505Z,3.70
2023-03-16T08:00:21.058Z,4.50
2023-03-16T08:02:52.482Z,2.90
2023-03-16T08:05:22.726Z,3.40
2023-03-16T08:07:52.683Z,2.90
2023-03-16T08:10:22.444Z,4.10
2023-03-16T08:12:52.791Z,3.90
2023-03-16T08:15:22.253Z,4.20
2023-03-16T08:17:53.349Z,2.60
2023-03-16T08:20:23.135Z,2.80
2023-03-16T08:22:51.958Z,4.30
2023-03-16T08:25:22.385Z,3.10
2023-03-16T08:27:52.272Z,3.80
2023-03-16T08:30:23.578Z,2.70
2023-03-16T08:32:52.822Z,2.30
2023-03-16T08:35:22.252Z,2.70
2023-03-16T08:37:51.515Z,3.10
2023-03-16T08:40:23.058Z,3.10
2023-03-16T08:42:53.202Z,2.70
2023-03-16T08:45:23.915Z,3.50
2023-03-16T08:47:52.775Z,2.80
2023-03-16T08:50:22.994Z,2.20
2023-03-16T08:52:52.427Z,2.10
2023-03-16T08:55:21.993Z,3.10
2023-03-16T08:57:51.496Z,3.40
2023-03-16T09:00:21.095Z,2.60
2023-03-16T09:02:50.427Z,3.00
2023-03-16T09:05:19.978Z,2.60
2023-03-16T09:07:49.157Z,2.20
2023-03-16T09:10:20.173Z,1.90
2023-03-16T09:12:50.880Z,2.10
2023-03-16T09:15:22.300Z,4.10
2023-03-16T09:17:52.432Z,2.40
2023-03-16T09:20:26.199Z,1.60
2023-03-16T09:22:57.954Z,3.30
2023-03-16T09:25:27.295Z,2.10
2023-03-16T09:27:57.242Z,2.00
2023-03-16T09:30:28.002Z,1.70
2023-03-16T09:32:57.680Z,2.20
2023-03-16T09:35:27.539Z,3.20
2023-03-16T09:38:06.359Z,6.40
2023-03-16T09:40:38.753Z,2.50
2023-03-16T09:43:21.061Z,2.70
2023-03-16T09:46:21.292Z,2.70
2023-03-16T09:48:50.478Z,3.40
2023-03-16T09:51:52.804Z,2.10
2023-03-16T09:54:32.558Z,2.60
2023-03-16T09:57:02.286Z,1.60
2023-03-16T09:59:31.420Z,1.70
2023-03-16T10:02:34.304Z,4.00
2023-03-16T10:05:13.251Z,2.80
2023-03-16T10:07:50.896Z,2.30
2023-03-16T10:10:50.227Z,3.10
2023-03-16T10:13:35.277Z,10.20
2023-03-16T10:16:47.119Z,20.90
2023-03-16T10:19:32.274Z,12.40
2023-03-16T10:22:11.152Z,5.00
2023-03-16T10:25:04.233Z,3.80
2023-03-16T10:27:39.076Z,3.50
2023-03-16T10:30:32.714Z,4.50
2023-03-16T10:33:17.820Z,5.70
2023-03-16T10:35:58.906Z,3.30
2023-03-16T10:38:40.635Z,5.90
2023-03-16T10:41:24.808Z,3.00
2023-03-16T10:44:07.977Z,2.00
2023-03-16T10:46:49.075Z,2.30
2023-03-16T10:49:26.147Z,3.00
2023-03-16T10:52:05.559Z,3.50
2023-03-16T10:54:39.814Z,2.30
2023-03-16T10:57:31.908Z,3.30
2023-03-16T11:00:24.275Z,2.60
2023-03-16T11:02:57.249Z,1.80
2023-03-16T11:05:30.195Z,1.40
2023-03-16T11:08:22.458Z,2.30
2023-03-16T11:11:01.308Z,2.10
2023-03-16T11:13:38.208Z,1.50
2023-03-16T11:16:32.525Z,2.40
2023-03-16T11:19:30.073Z,2.50
2023-03-16T11:22:20.085Z,1.90
2023-03-16T11:24:53.407Z,2.10
2023-03-16T11:27:42.466Z,3.10
2023-03-16T11:30:20.377Z,1.60
2023-03-16T11:32:53.948Z,1.60
2023-03-16T11:36:01.565Z,2.10
2023-03-16T11:38:38.154Z,1.30
2023-03-16T11:41:15.450Z,1.70
2023-03-16T11:43:53.658Z,2.60
2023-03-16T11:46:28.365Z,1.50
2023-03-16T11:49:14.179Z,2.00
2023-03-16T11:52:00.281Z,1.50
2023-03-16T11:54:50.727Z,1.40
2023-03-16T11:57:51.650Z,3.60
2023-03-16T12:00:35.005Z,2.60
2023-03-16T12:03:29.634Z,2.20
2023-03-16T12:06:23.582Z,1.80
2023-03-16T12:09:08.469Z,3.50
2023-03-16T12:11:43.106Z,2.10
2023-03-16T12:14:20.070Z,1.90
2023-03-16T12:17:02.900Z,2.10
2023-03-16T12:19:52.697Z,1.60
2023-03-16T12:22:30.285Z,2.30
2023-03-16T12:25:00.741Z,1.70
2023-03-16T12:27:39.681Z,2.50
2023-03-16T12:30:41.672Z,6.00
2023-03-16T12:33:41.379Z,1.60
2023-03-16T12:36:19.605Z,3.60
2023-03-16T12:38:58.755Z,1.90
2023-03-16T12:41:38.586Z,5.40
2023-03-16T12:44:13.145Z,4.50
2023-03-16T12:47:10.159Z,3.60
2023-03-16T12:49:40.533Z,1.50
2023-03-16T12:52:13.144Z,2.90
2023-03-16T12:55:08.505Z,4.50
2023-03-16T12:57:41.725Z,3.40
2023-03-16T13:00:14.141Z,2.70
2023-03-16T13:02:51.003Z,2.00
2023-03-16T13:05:32.813Z,3.00
2023-03-16T13:08:18.026Z,1.80
2023-03-16T13:11:11.815Z,1.50
2023-03-16T13:14:02.768Z,2.10
2023-03-16T13:16:37.126Z,1.90
2023-03-16T13:19:30.850Z,2.60
2023-03-16T13:22:06.936Z,1.70
2023-03-16T13:24:41.426Z,3.80
2023-03-16T13:27:23.589Z,2.40
2023-03-16T13:29:56.220Z,2.90
2023-03-16T13:32:30.553Z,2.40
2023-03-16T13:35:02.547Z,2.70
2023-03-16T13:37:32.373Z,2.60
2023-03-16T13:40:05.188Z,1.90
2023-03-16T13:42:35.189Z,2.10
2023-03-16T13:45:20.470Z,2.20
2023-03-16T13:47:50.945Z,2.10
2023-03-16T13:50:21.421Z,3.10
2023-03-16T13:52:59.138Z,4.70
2023-03-16T13:55:36.060Z,2.60
2023-03-16T13:58:05.930Z,4.50
2023-03-16T14:00:38.343Z,6.40
2023-03-16T14:03:16.986Z,4.40
2023-03-16T14:05:48.146Z,4.90
2023-03-16T14:08:24.004Z,4.50
2023-03-16T14:10:59.883Z,3.30
2023-03-16T14:13:33.044Z,4.20
2023-03-16T14:16:08.186Z,1.80
2023-03-16T14:18:41.961Z,2.10
2023-03-16T14:21:22.035Z,2.50
2023-03-16T14:24:05.836Z,2.60
2023-03-16T14:26:48.990Z,2.30
2023-03-16T14:29:22.863Z,2.90
2023-03-16T14:31:52.930Z,2.30
2023-03-16T14:34:30.031Z,2.70
2023-03-16T14:37:14.555Z,2.40
2023-03-16T14:39:43.963Z,2.40
2023-03-16T14:42:32.571Z,5.20
2023-03-16T14:45:08.179Z,2.50
2023-03-16T14:47:45.032Z,2.90
2023-03-16T14:50:19.716Z,3.00
2023-03-16T14:52:51.517Z,2.20
2023-03-16T14:55:23.931Z,3.10
2023-03-16T14:57:54.011Z,2.50
2023-03-16T15:00:24.497Z,2.60
2023-03-16T15:03:12.663Z,2.00
2023-03-16T15:05:46.149Z,3.60
2023-03-16T15:08:23.014Z,2.80
2023-03-16T15:10:52.430Z,1.70
2023-03-16T15:13:42.979Z,3.60
2023-03-16T15:16:14.886Z,2.90
2023-03-16T15:18:44.943Z,2.30
2023-03-16T15:21:32.186Z,1.30
2023-03-16T15:24:02.399Z,2.20
2023-03-16T15:26:33.258Z,2.70
2023-03-16T15:29:03.050Z,2.00
2023-03-16T15:31:32.238Z,1.90
2023-03-16T15:34:01.729Z,11.20
2023-03-16T15:36:31.009Z,1.90
2023-03-16T15:39:02.104Z,1.80
2023-03-16T15:41:38.296Z,1.90
2023-03-16T15:44:14.305Z,2.40
2023-03-16T15:46:43.627Z,2.40
2023-03-16T15:49:13.348Z,1.40
2023-03-16T15:51:43.116Z,2.20
2023-03-16T15:54:12.787Z,1.80
2023-03-16T15:56:53.797Z,2.70
2023-03-16T15:59:24.996Z,1.70
2023-03-16T16:01:53.991Z,3.90
2023-03-16T16:04:24.699Z,1.60
2023-03-16T16:06:55.881Z,1.50
2023-03-16T16:09:26.219Z,3.10
2023-03-16T16:11:55.668Z,3.90
2023-03-16T16:14:27.099Z,1.60
2023-03-16T16:16:56.334Z,2.20
2023-03-16T16:19:25.968Z,2.20
2023-03-16T16:21:55.401Z,2.90
2023-03-16T16:24:25.646Z,3.80
2023-03-16T16:26:56.185Z,2.50
2023-03-16T16:29:32.572Z,1.70
2023-03-16T16:32:02.404Z,1.70
2023-03-16T16:34:31.718Z,1.80
2023-03-16T16:37:01.501Z,2.50
2023-03-16T16:39:31.771Z,2.40
2023-03-16T16:42:01.574Z,2.20
2023-03-16T16:44:34.020Z,3.60
2023-03-16T16:47:04.389Z,4.50
2023-03-16T16:49:35.491Z,2.40
2023-03-16T16:52:04.730Z,2.90
2023-03-16T16:54:33.992Z,5.10
2023-03-16T16:57:03.590Z,4.10
2023-03-16T16:59:37.384Z,4.30
2023-03-16T17:02:41.627Z,4.10
2023-03-16T17:05:27.172Z,3.80
2023-03-16T17:07:56.858Z,6.40
2023-03-16T17:10:27.661Z,4.60
2023-03-16T17:12:57.570Z,4.90
2023-03-16T17:15:30.849Z,4.50
2023-03-16T17:18:14.781Z,3.50
2023-03-16T17:20:44.993Z,4.40
2023-03-16T17:23:33.367Z,4.10
2023-03-16T17:26:28.362Z,5.40
2023-03-16T17:29:06.663Z,4.30
2023-03-16T17:31:43.411Z,5.40
2023-03-16T17:34:34.695Z,6.30
2023-03-16T17:37:03.871Z,4.50
2023-03-16T17:39:35.028Z,4.60
2023-03-16T17:42:07.750Z,3.80
2023-03-16T17:44:46.507Z,3.40
2023-03-16T17:47:23.760Z,9.10
2023-03-16T17:49:54.369Z,7.00
2023-03-16T17:52:26.693Z,5.30
2023-03-16T17:54:56.642Z,4.80
2023-03-16T17:57:31.652Z,3.20
2023-03-16T18:00:06.275Z,4.00
2023-03-16T18:02:44.598Z,6.60
2023-03-16T18:05:23.155Z,3.10
2023-03-16T18:07:53.498Z,20.20
2023-03-16T18:10:27.886Z,6.70
2023-03-16T18:13:05.127Z,15.50
2023-03-16T18:15:39.854Z,3.80
2023-03-16T18:18:18.020Z,6.70
2023-03-16T18:20:47.100Z,10.30
2023-03-16T18:23:21.523Z,8.70
2023-03-16T18:25:54.638Z,5.50
2023-03-16T18:28:23.982Z,11.00
2023-03-16T18:30:54.471Z,8.00
2023-03-16T18:33:29.155Z,7.90
2023-03-16T18:36:04.450Z,5.50
2023-03-16T18:38:40.475Z,9.90
2023-03-16T18:41:24.393Z,47.10
2023-03-16T18:43:56.488Z,6.60
2023-03-16T18:46:32.553Z,7.60
2023-03-16T18:49:05.136Z,3.60
2023-03-16T18:51:35.137Z,3.40
2023-03-16T18:54:04.816Z,7.40
2023-03-16T18:56:34.630Z,4.10
2023-03-16T18:59:03.741Z,7.80
2023-03-16T19:01:37.612Z,4.00
2023-03-16T19:04:20.327Z,4.90
2023-03-16T19:06:52.678Z,3.50
2023-03-16T19:09:28.325Z,2.80
2023-03-16T19:11:58.158Z,3.10
2023-03-16T19:14:33.092Z,6.10
2023-03-16T19:17:02.823Z,5.10
2023-03-16T19:19:32.728Z,6.40
2023-03-16T19:22:22.576Z,4.80
2023-03-16T19:24:55.059Z,3.60
2023-03-16T19:27:26.137Z,4.20
2023-03-16T19:29:56.021Z,4.80
2023-03-16T19:32:25.774Z,3.50
2023-03-16T19:34:55.352Z,7.40
2023-03-16T19:37:26.725Z,29.80
2023-03-16T19:39:55.928Z,33.40
2023-03-16T19:42:34.390Z,58.10
2023-03-16T19:45:05.442Z,50.40
2023-03-16T19:47:36.254Z,19.30
2023-03-16T19:50:31.044Z,9.40
2023-03-16T19:53:02.782Z,8.50
2023-03-16T19:55:32.793Z,4.10
2023-03-16T19:58:08.090Z,4.00
2023-03-16T20:00:38.053Z,2.60
2023-03-16T20:03:11.530Z,4.00
2023-03-16T20:05:41.217Z,4.50
2023-03-16T20:08:23.507Z,6.50
2023-03-16T20:10:56.614Z,7.90
2023-03-16T20:13:26.516Z,7.60
2023-03-16T20:15:56.751Z,2.60
2023-03-16T20:18:29.231Z,3.40
2023-03-16T20:20:58.509Z,5.60
2023-03-16T20:23:33.140Z,7.20
2023-03-16T20:26:03.241Z,7.10
2023-03-16T20:28:37.206Z,8.40
2023-03-16T20:31:09.366Z,5.70
2023-03-16T20:33:41.108Z,7.30
2023-03-16T20:36:14.100Z,7.50
2023-03-16T20:38:44.157Z,5.40
2023-03-16T20:41:27.052Z,5.00
2023-03-16T20:43:59.786Z,2.40
2023-03-16T20:46:33.141Z,2.30
2023-03-16T20:49:02.734Z,3.30
2023-03-16T20:51:32.094Z,3.40
2023-03-16T20:54:01.462Z,3.20
2023-03-16T20:56:31.920Z,2.50
2023-03-16T20:59:01.616Z,3.00
2023-03-16T21:01:30.998Z,2.00
2023-03-16T21:04:00.665Z,8.90
2023-03-16T21:06:33.146Z,3.80
2023-03-16T21:09:04.105Z,3.70
2023-03-16T21:11:39.627Z,7.00
2023-03-16T21:14:18.200Z,4.30
2023-03-16T21:16:48.427Z,4.70
2023-03-16T21:19:22.014Z,6.20
2023-03-16T21:21:51.882Z,3.40
2023-03-16T21:24:21.701Z,4.20
2023-03-16T21:26:50.979Z,4.10
2023-03-16T21:29:24.608Z,8.20
2023-03-16T21:31:53.896Z,6.10
2023-03-16T21:34:27.315Z,6.20
2023-03-16T21:36:56.388Z,10.00
2023-03-16T21:39:25.777Z,9.30
2023-03-16T21:41:55.834Z,4.90
2023-03-16T21:44:24.654Z,5.70
2023-03-16T21:46:54.776Z,3.40
2023-03-16T21:49:24.220Z,4.30
2023-03-16T21:51:53.145Z,3.00
2023-03-16T21:54:22.026Z,3.00
2023-03-16T21:56:51.116Z,2.50
2023-03-16T21:59:21.609Z,2.80
2023-03-16T22:02:01.538Z,2.10
2023-03-16T22:04:36.020Z,2.90
2023-03-16T22:07:13.585Z,2.00
2023-03-16T22:09:43.031Z,3.20
2023-03-16T22:12:14.049Z,3.90
2023-03-16T22:14:43.278Z,3.00
2023-03-16T22:17:23.381Z,2.30
2023-03-16T22:19:53.468Z,2.30
2023-03-16T22:22:23.340Z,2.40
2023-03-16T22:24:52.558Z,2.60
2023-03-16T22:27:26.285Z,3.10
2023-03-16T22:29:55.096Z,2.60
2023-03-16T22:32:24.001Z,3.10
2023-03-16T22:34:56.500Z,3.10
2023-03-16T22:37:28.282Z,2.60
2023-03-16T22:40:00.510Z,3.10
2023-03-16T22:42:38.569Z,2.10
2023-03-16T22:45:21.888Z,2.20
2023-03-16T22:47:51.657Z,2.80
2023-03-16T22:50:22.699Z,3.30
2023-03-16T22:52:54.999Z,3.30
2023-03-16T22:55:36.093Z,2.70
2023-03-16T22:58:12.655Z,2.40
2023-03-16T23:00:43.267Z,3.80
2023-03-16T23:03:24.578Z,6.00
2023-03-16T23:05:53.842Z,6.60
2023-03-16T23:08:26.944Z,4.40
2023-03-16T23:10:56.492Z,7.10
2023-03-16T23:13:27.478Z,8.30
2023-03-16T23:15:57.327Z,37.20
2023-03-16T23:18:27.572Z,48.40
2023-03-16T23:20:56.660Z,129.30
2023-03-16T23:23:26.249Z,20.40
2023-03-16T23:25:55.526Z,58.70
2023-03-16T23:28:24.943Z,25.60
2023-03-16T23:30:53.795Z,60.30
2023-03-16T23:33:22.433Z,48.90
2023-03-16T23:35:51.201Z,11.80
2023-03-16T23:38:19.649Z,25.40
2023-03-16T23:40:49.773Z,33.30
2023-03-16T23:43:18.447Z,23.40
2023-03-16T23:45:48.010Z,16.90
2023-03-16T23:48:21.187Z,12.20
2023-03-16T23:50:54.862Z,8.80
2023-03-16T23:53:25.942Z,6.30
2023-03-16T23:55:54.866Z,6.10
2023-03-16T23:58:23.511Z,3.60
